sensor_id;sensor_type;location;lat;lon;timestamp;pressure;altitude;pressure_sealevel;temperature;humidity
61324;BME280;47203;48.428;11.974;2023-11-21T00:00:07;96296.59;;;10.65;53.38
61324;BME280;47203;48.428;11.974;2023-11-21T00:02:14;96292.66;;;10.62;53.38
61324;BME280;47203;48.428;11.974;2023-11-21T00:04:19;96299.25;;;10.60;53.58
61324;BME280;47203;48.428;11.974;2023-11-21T00:06:24;96291.63;;;10.58;53.73
61324;BME280;47203;48.428;11.974;2023-11-21T00:08:29;96294.00;;;10.60;53.41
61324;BME280;47203;48.428;11.974;2023-11-21T00:10:35;96285.31;;;10.59;53.39
61324;BME280;47203;48.428;11.974;2023-11-21T00:12:43;96297.44;;;10.60;53.47
61324;BME280;47203;48.428;11.974;2023-11-21T00:14:45;96292.16;;;10.60;53.42
61324;BME280;47203;48.428;11.974;2023-11-21T00:16:51;96300.06;;;10.60;53.41
61324;BME280;47203;48.428;11.974;2023-11-21T00:18:56;96294.28;;;10.58;53.69
61324;BME280;47203;48.428;11.974;2023-11-21T00:21:01;96293.78;;;10.56;53.50
61324;BME280;47203;48.428;11.974;2023-11-21T00:23:06;96289.56;;;10.55;53.61
61324;BME280;47203;48.428;11.974;2023-11-21T00:25:12;96298.78;;;10.53;53.54
61324;BME280;47203;48.428;11.974;2023-11-21T00:27:18;96294.59;;;10.52;53.95
61324;BME280;47203;48.428;11.974;2023-11-21T00:29:26;96290.38;;;10.51;53.55
61324;BME280;47203;48.428;11.974;2023-11-21T00:31:31;96287.75;;;10.51;53.70
61324;BME280;47203;48.428;11.974;2023-11-21T00:33:37;96284.63;;;10.48;53.94
61324;BME280;47203;48.428;11.974;2023-11-21T00:35:43;96284.63;;;10.48;53.79
61324;BME280;47203;48.428;11.974;2023-11-21T00:37:49;96285.16;;;10.45;53.90
61324;BME280;47203;48.428;11.974;2023-11-21T00:39:54;96287.81;;;10.45;54.05
61324;BME280;47203;48.428;11.974;2023-11-21T00:41:56;96283.31;;;10.46;54.06
61324;BME280;47203;48.428;11.974;2023-11-21T00:44:01;96279.91;;;10.45;54.15
61324;BME280;47203;48.428;11.974;2023-11-21T00:46:09;96273.84;;;10.45;54.13
61324;BME280;47203;48.428;11.974;2023-11-21T00:48:15;96278.31;;;10.44;54.18
61324;BME280;47203;48.428;11.974;2023-11-21T00:50:17;96275.97;;;10.43;53.92
61324;BME280;47203;48.428;11.974;2023-11-21T00:52:22;96273.91;;;10.40;54.11
61324;BME280;47203;48.428;11.974;2023-11-21T00:54:27;96273.91;;;10.40;54.04
61324;BME280;47203;48.428;11.974;2023-11-21T00:56:36;96273.09;;;10.39;53.93
61324;BME280;47203;48.428;11.974;2023-11-21T00:58:42;96266.50;;;10.42;54.16
61324;BME280;47203;48.428;11.974;2023-11-21T01:00:52;96267.00;;;10.44;54.06
61324;BME280;47203;48.428;11.974;2023-11-21T01:03:00;96274.66;;;10.45;54.11
61324;BME280;47203;48.428;11.974;2023-11-21T01:05:06;96275.41;;;10.46;54.11
61324;BME280;47203;48.428;11.974;2023-11-21T01:07:12;96268.31;;;10.46;54.16
61324;BME280;47203;48.428;11.974;2023-11-21T01:09:17;96271.75;;;10.47;54.21
61324;BME280;47203;48.428;11.974;2023-11-21T01:11:22;96272.25;;;10.49;54.26
61324;BME280;47203;48.428;11.974;2023-11-21T01:13:28;96262.50;;;10.50;54.24
61324;BME280;47203;48.428;11.974;2023-11-21T01:15:33;96265.94;;;10.50;54.24
61324;BME280;47203;48.428;11.974;2023-11-21T01:17:38;96256.44;;;10.49;54.17
61324;BME280;47203;48.428;11.974;2023-11-21T01:19:47;96260.94;;;10.48;54.15
61324;BME280;47203;48.428;11.974;2023-11-21T01:21:50;96256.72;;;10.47;54.38
61324;BME280;47203;48.428;11.974;2023-11-21T01:23:55;96256.44;;;10.49;54.38
61324;BME280;47203;48.428;11.974;2023-11-21T01:26:00;96255.13;;;10.52;54.42
61324;BME280;47203;48.428;11.974;2023-11-21T01:28:05;96253.00;;;10.54;54.45
61324;BME280;47203;48.428;11.974;2023-11-21T01:30:10;96260.34;;;10.57;54.40
61324;BME280;47203;48.428;11.974;2023-11-21T01:32:16;96254.03;;;10.58;54.58
61324;BME280;47203;48.428;11.974;2023-11-21T01:34:22;96259.78;;;10.60;54.31
61324;BME280;47203;48.428;11.974;2023-11-21T01:36:33;96255.81;;;10.62;54.81
61324;BME280;47203;48.428;11.974;2023-11-21T01:38:38;96262.38;;;10.65;54.55
61324;BME280;47203;48.428;11.974;2023-11-21T01:40:44;96258.72;;;10.66;54.54
61324;BME280;47203;48.428;11.974;2023-11-21T01:42:49;96268.69;;;10.69;54.76
61324;BME280;47203;48.428;11.974;2023-11-21T01:44:54;96268.41;;;10.71;54.65
61324;BME280;47203;48.428;11.974;2023-11-21T01:46:59;96275.75;;;10.74;54.81
61324;BME280;47203;48.428;11.974;2023-11-21T01:49:07;96274.69;;;10.75;54.65
61324;BME280;47203;48.428;11.974;2023-11-21T01:51:16;96274.69;;;10.75;54.73
61324;BME280;47203;48.428;11.974;2023-11-21T01:53:26;96275.19;;;10.77;54.66
61324;BME280;47203;48.428;11.974;2023-11-21T01:55:30;96280.94;;;10.79;54.59
61324;BME280;47203;48.428;11.974;2023-11-21T01:57:36;96290.44;;;10.80;54.60
61324;BME280;47203;48.428;11.974;2023-11-21T01:59:44;96276.22;;;10.81;54.88
61324;BME280;47203;48.428;11.974;2023-11-21T02:01:50;96273.59;;;10.81;55.05
61324;BME280;47203;48.428;11.974;2023-11-21T02:04:00;96279.13;;;10.79;55.02
61324;BME280;47203;48.428;11.974;2023-11-21T02:06:06;96268.31;;;10.81;55.19
61324;BME280;47203;48.428;11.974;2023-11-21T02:08:11;96260.13;;;10.82;55.20
61324;BME280;47203;48.428;11.974;2023-11-21T02:10:20;96271.16;;;10.85;55.38
61324;BME280;47203;48.428;11.974;2023-11-21T02:12:26;96255.34;;;10.90;55.33
61324;BME280;47203;48.428;11.974;2023-11-21T02:14:31;96270.59;;;10.93;55.32
61324;BME280;47203;48.428;11.974;2023-11-21T02:16:36;96252.66;;;10.95;55.59
61324;BME280;47203;48.428;11.974;2023-11-21T02:18:42;96252.09;;;10.98;55.36
61324;BME280;47203;48.428;11.974;2023-11-21T02:20:49;96251.84;;;10.99;55.32
61324;BME280;47203;48.428;11.974;2023-11-21T02:22:55;96247.34;;;11.00;55.72
61324;BME280;47203;48.428;11.974;2023-11-21T02:25:03;96248.66;;;11.03;55.78
61324;BME280;47203;48.428;11.974;2023-11-21T02:27:11;96239.66;;;11.04;55.59
61324;BME280;47203;48.428;11.974;2023-11-21T02:29:16;96246.50;;;11.05;55.49
61324;BME280;47203;48.428;11.974;2023-11-21T02:31:24;96244.66;;;11.05;55.76
61324;BME280;47203;48.428;11.974;2023-11-21T02:33:29;96250.72;;;11.06;55.71
61324;BME280;47203;48.428;11.974;2023-11-21T02:35:32;96242.81;;;11.06;55.86
61324;BME280;47203;48.428;11.974;2023-11-21T02:37:37;96243.31;;;11.08;55.71
61324;BME280;47203;48.428;11.974;2023-11-21T02:39:45;96245.66;;;11.09;55.87
61324;BME280;47203;48.428;11.974;2023-11-21T02:41:50;96246.47;;;11.10;55.91
61324;BME280;47203;48.428;11.974;2023-11-21T02:43:52;96247.25;;;11.10;56.07
61324;BME280;47203;48.428;11.974;2023-11-21T02:45:57;96248.31;;;11.09;55.76
61324;BME280;47203;48.428;11.974;2023-11-21T02:48:03;96248.59;;;11.08;56.02
61324;BME280;47203;48.428;11.974;2023-11-21T02:50:08;96245.19;;;11.07;55.89
61324;BME280;47203;48.428;11.974;2023-11-21T02:52:11;96248.13;;;11.00;56.00
61324;BME280;47203;48.428;11.974;2023-11-21T02:54:16;96243.66;;;11.01;56.14
61324;BME280;47203;48.428;11.974;2023-11-21T02:56:24;96252.34;;;11.02;56.17
61324;BME280;47203;48.428;11.974;2023-11-21T02:58:26;96245.75;;;11.04;56.20
61324;BME280;47203;48.428;11.974;2023-11-21T03:00:31;96249.16;;;11.05;56.20
61324;BME280;47203;48.428;11.974;2023-11-21T03:02:36;96247.84;;;11.02;56.35
61324;BME280;47203;48.428;11.974;2023-11-21T03:04:42;96256.81;;;11.01;56.35
61324;BME280;47203;48.428;11.974;2023-11-21T03:06:47;96244.44;;;11.02;56.39
61324;BME280;47203;48.428;11.974;2023-11-21T03:08:52;96252.06;;;11.03;56.27
61324;BME280;47203;48.428;11.974;2023-11-21T03:10:57;96248.66;;;11.03;56.31
61324;BME280;47203;48.428;11.974;2023-11-21T03:13:05;96251.28;;;11.03;56.29
61324;BME280;47203;48.428;11.974;2023-11-21T03:15:10;96248.66;;;11.03;56.08
61324;BME280;47203;48.428;11.974;2023-11-21T03:17:15;96258.09;;;11.04;56.22
61324;BME280;47203;48.428;11.974;2023-11-21T03:19:20;96255.19;;;11.05;56.16
61324;BME280;47203;48.428;11.974;2023-11-21T03:21:23;96245.47;;;11.06;56.12
61324;BME280;47203;48.428;11.974;2023-11-21T03:23:28;96249.63;;;11.07;55.88
61324;BME280;47203;48.428;11.974;2023-11-21T03:25:33;96244.38;;;11.07;56.01
61324;BME280;47203;48.428;11.974;2023-11-21T03:27:38;96244.13;;;11.08;56.15
61324;BME280;47203;48.428;11.974;2023-11-21T03:29:48;96242.25;;;11.09;56.07
61324;BME280;47203;48.428;11.974;2023-11-21T03:31:53;96241.22;;;11.10;56.00
61324;BME280;47203;48.428;11.974;2023-11-21T03:33:58;96246.75;;;11.08;56.19
61324;BME280;47203;48.428;11.974;2023-11-21T03:36:04;96245.94;;;11.08;56.18
61324;BME280;47203;48.428;11.974;2023-11-21T03:38:06;96254.91;;;11.07;56.48
61324;BME280;47203;48.428;11.974;2023-11-21T03:40:11;96242.81;;;11.06;56.49
61324;BME280;47203;48.428;11.974;2023-11-21T03:42:17;96243.88;;;11.05;56.19
61324;BME280;47203;48.428;11.974;2023-11-21T03:44:23;96243.88;;;11.05;56.28
61324;BME280;47203;48.428;11.974;2023-11-21T03:46:30;96244.94;;;11.04;56.32
61324;BME280;47203;48.428;11.974;2023-11-21T03:48:33;96238.69;;;10.99;56.21
61324;BME280;47203;48.428;11.974;2023-11-21T03:50:38;96236.28;;;10.98;56.67
61324;BME280;47203;48.428;11.974;2023-11-21T03:52:41;96243.41;;;10.97;56.60
61324;BME280;47203;48.428;11.974;2023-11-21T03:54:46;96239.72;;;10.98;56.54
61324;BME280;47203;48.428;11.974;2023-11-21T03:56:51;96237.09;;;10.98;56.76
61324;BME280;47203;48.428;11.974;2023-11-21T03:58:57;96243.66;;;11.01;56.44
61324;BME280;47203;48.428;11.974;2023-11-21T04:01:02;96241.03;;;11.01;56.69
61324;BME280;47203;48.428;11.974;2023-11-21T04:03:09;96239.94;;;11.02;56.52
61324;BME280;47203;48.428;11.974;2023-11-21T04:05:15;96245.22;;;11.02;56.42
61324;BME280;47203;48.428;11.974;2023-11-21T04:07:20;96239.94;;;11.02;56.79
61324;BME280;47203;48.428;11.974;2023-11-21T04:09:24;96240.75;;;11.03;56.62
61324;BME280;47203;48.428;11.974;2023-11-21T04:11:30;96250.19;;;11.04;56.69
61324;BME280;47203;48.428;11.974;2023-11-21T04:13:35;96247.34;;;11.00;56.68
61324;BME280;47203;48.428;11.974;2023-11-21T04:15:37;96231.03;;;10.98;56.87
61324;BME280;47203;48.428;11.974;2023-11-21T04:17:42;96230.25;;;10.97;56.75
61324;BME280;47203;48.428;11.974;2023-11-21T04:19:50;96230.81;;;10.94;56.85
61324;BME280;47203;48.428;11.974;2023-11-21T04:21:55;96236.63;;;10.91;57.04
61324;BME280;47203;48.428;11.974;2023-11-21T04:24:00;96233.47;;;10.89;57.01
61324;BME280;47203;48.428;11.974;2023-11-21T04:26:05;96234.31;;;10.85;56.73
61324;BME280;47203;48.428;11.974;2023-11-21T04:28:10;96235.16;;;10.80;56.94
61324;BME280;47203;48.428;11.974;2023-11-21T04:30:16;96239.38;;;10.76;56.98
61324;BME280;47203;48.428;11.974;2023-11-21T04:32:21;96234.69;;;10.73;57.15
61324;BME280;47203;48.428;11.974;2023-11-21T04:34:26;96233.63;;;10.74;57.00
61324;BME280;47203;48.428;11.974;2023-11-21T04:36:35;96233.91;;;10.72;57.20
61324;BME280;47203;48.428;11.974;2023-11-21T04:38:40;96229.97;;;10.70;57.19
61324;BME280;47203;48.428;11.974;2023-11-21T04:40:45;96232.59;;;10.70;56.86
61324;BME280;47203;48.428;11.974;2023-11-21T04:42:51;96242.09;;;10.71;57.32
61324;BME280;47203;48.428;11.974;2023-11-21T04:44:56;96248.41;;;10.70;57.02
61324;BME280;47203;48.428;11.974;2023-11-21T04:47:01;96246.25;;;10.72;56.99
61324;BME280;47203;48.428;11.974;2023-11-21T04:49:06;96246.00;;;10.73;57.11
61324;BME280;47203;48.428;11.974;2023-11-21T04:51:12;96246.50;;;10.75;57.13
61324;BME280;47203;48.428;11.974;2023-11-21T04:53:20;96246.22;;;10.77;56.93
61324;BME280;47203;48.428;11.974;2023-11-21T04:55:25;96249.66;;;10.77;56.95
61324;BME280;47203;48.428;11.974;2023-11-21T04:57:30;96250.44;;;10.78;57.10
61324;BME280;47203;48.428;11.974;2023-11-21T04:59:35;96249.66;;;10.77;57.04
61324;BME280;47203;48.428;11.974;2023-11-21T05:01:40;96246.22;;;10.77;56.97
61324;BME280;47203;48.428;11.974;2023-11-21T05:03:46;96242.03;;;10.76;57.06
61324;BME280;47203;48.428;11.974;2023-11-21T05:05:51;96245.22;;;10.73;57.07
61324;BME280;47203;48.428;11.974;2023-11-21T05:07:57;96243.41;;;10.68;57.41
61324;BME280;47203;48.428;11.974;2023-11-21T05:10:07;96249.50;;;10.63;57.28
61324;BME280;47203;48.428;11.974;2023-11-21T05:12:13;96244.78;;;10.60;57.18
61324;BME280;47203;48.428;11.974;2023-11-21T05:14:19;96245.06;;;10.59;57.28
61324;BME280;47203;48.428;11.974;2023-11-21T05:16:22;96251.38;;;10.58;57.38
61324;BME280;47203;48.428;11.974;2023-11-21T05:18:27;96251.66;;;10.56;57.51
61324;BME280;47203;48.428;11.974;2023-11-21T05:20:32;96249.03;;;10.56;57.33
61324;BME280;47203;48.428;11.974;2023-11-21T05:22:37;96249.03;;;10.56;57.70
61324;BME280;47203;48.428;11.974;2023-11-21T05:24:42;96250.38;;;10.54;57.57
61324;BME280;47203;48.428;11.974;2023-11-21T05:26:50;96242.75;;;10.52;57.74
61324;BME280;47203;48.428;11.974;2023-11-21T05:28:55;96245.38;;;10.52;57.44
61324;BME280;47203;48.428;11.974;2023-11-21T05:31:00;96246.44;;;10.51;57.40
61324;BME280;47203;48.428;11.974;2023-11-21T05:33:17;96245.94;;;10.49;57.23
61324;BME280;47203;48.428;11.974;2023-11-21T05:35:22;96247.25;;;10.46;57.15
61324;BME280;47203;48.428;11.974;2023-11-21T05:37:27;96249.88;;;10.46;57.44
61324;BME280;47203;48.428;11.974;2023-11-21T05:39:29;96250.16;;;10.45;57.51
61324;BME280;47203;48.428;11.974;2023-11-21T05:41:34;96257.56;;;10.43;57.52
61324;BME280;47203;48.428;11.974;2023-11-21T05:43:42;96255.97;;;10.42;57.32
61324;BME280;47203;48.428;11.974;2023-11-21T05:45:47;96249.41;;;10.39;57.50
61324;BME280;47203;48.428;11.974;2023-11-21T05:47:52;96253.13;;;10.38;57.42
61324;BME280;47203;48.428;11.974;2023-11-21T05:49:57;96247.31;;;10.36;57.59
61324;BME280;47203;48.428;11.974;2023-11-21T05:52:03;96257.06;;;10.36;57.53
61324;BME280;47203;48.428;11.974;2023-11-21T05:54:08;96256.03;;;10.31;57.71
61324;BME280;47203;48.428;11.974;2023-11-21T05:56:13;96259.69;;;10.30;57.35
61324;BME280;47203;48.428;11.974;2023-11-21T05:58:20;96260.25;;;10.27;57.72
61324;BME280;47203;48.428;11.974;2023-11-21T06:00:27;96266.06;;;10.24;57.73
61324;BME280;47203;48.428;11.974;2023-11-21T06:02:34;96261.06;;;10.23;57.39
61324;BME280;47203;48.428;11.974;2023-11-21T06:04:37;96264.75;;;10.22;57.50
61324;BME280;47203;48.428;11.974;2023-11-21T06:06:42;96268.47;;;10.21;57.59
61324;BME280;47203;48.428;11.974;2023-11-21T06:08:47;96268.47;;;10.21;57.46
61324;BME280;47203;48.428;11.974;2023-11-21T06:10:52;96271.09;;;10.21;57.51
61324;BME280;47203;48.428;11.974;2023-11-21T06:12:57;96276.34;;;10.21;57.72
61324;BME280;47203;48.428;11.974;2023-11-21T06:15:05;96283.72;;;10.19;57.60
61324;BME280;47203;48.428;11.974;2023-11-21T06:17:13;96274.25;;;10.18;57.34
61324;BME280;47203;48.428;11.974;2023-11-21T06:19:20;96284.50;;;10.19;57.75
61324;BME280;47203;48.428;11.974;2023-11-21T06:21:22;96280.03;;;10.20;57.64
61324;BME280;47203;48.428;11.974;2023-11-21T06:23:27;96290.56;;;10.20;57.58
61324;BME280;47203;48.428;11.974;2023-11-21T06:25:33;96288.69;;;10.20;57.74
61324;BME280;47203;48.428;11.974;2023-11-21T06:27:40;96295.03;;;10.19;57.73
61324;BME280;47203;48.428;11.974;2023-11-21T06:29:43;96300.28;;;10.19;57.72
61324;BME280;47203;48.428;11.974;2023-11-21T06:31:49;96304.75;;;10.19;57.70
61324;BME280;47203;48.428;11.974;2023-11-21T06:33:57;96295.53;;;10.16;57.83
61324;BME280;47203;48.428;11.974;2023-11-21T06:36:03;96296.91;;;10.13;57.72
61324;BME280;47203;48.428;11.974;2023-11-21T06:38:08;96305.06;;;10.12;57.80
61324;BME280;47203;48.428;11.974;2023-11-21T06:40:13;96307.97;;;10.10;58.07
61324;BME280;47203;48.428;11.974;2023-11-21T06:42:21;96308.19;;;10.09;57.64
61324;BME280;47203;48.428;11.974;2023-11-21T06:44:26;96308.19;;;10.09;57.64
61324;BME280;47203;48.428;11.974;2023-11-21T06:46:31;96313.22;;;10.10;57.96
61324;BME280;47203;48.428;11.974;2023-11-21T06:48:36;96317.69;;;10.10;57.86
61324;BME280;47203;48.428;11.974;2023-11-21T06:50:44;96317.69;;;10.10;57.79
61324;BME280;47203;48.428;11.974;2023-11-21T06:52:49;96323.47;;;10.12;57.98
61324;BME280;47203;48.428;11.974;2023-11-21T06:54:54;96322.91;;;10.15;58.03
61324;BME280;47203;48.428;11.974;2023-11-21T06:56:59;96324.75;;;10.20;57.88
61324;BME280;47203;48.428;11.974;2023-11-21T06:59:04;96326.56;;;10.24;57.86
61324;BME280;47203;48.428;11.974;2023-11-21T07:01:11;96330.22;;;10.28;57.83
61324;BME280;47203;48.428;11.974;2023-11-21T07:03:13;96333.34;;;10.30;58.02
61324;BME280;47203;48.428;11.974;2023-11-21T07:05:18;96331.25;;;10.33;58.01
61324;BME280;47203;48.428;11.974;2023-11-21T07:07:27;96333.63;;;10.34;57.84
61324;BME280;47203;48.428;11.974;2023-11-21T07:09:32;96340.97;;;10.37;57.90
61324;BME280;47203;48.428;11.974;2023-11-21T07:11:37;96336.22;;;10.39;58.18
61324;BME280;47203;48.428;11.974;2023-11-21T07:13:45;96341.22;;;10.41;58.11
61324;BME280;47203;48.428;11.974;2023-11-21T07:15:50;96346.22;;;10.42;57.96
61324;BME280;47203;48.428;11.974;2023-11-21T07:17:55;96341.47;;;10.44;58.13
61324;BME280;47203;48.428;11.974;2023-11-21T07:20:00;96343.56;;;10.47;57.96
61324;BME280;47203;48.428;11.974;2023-11-21T07:22:03;96347.78;;;10.48;57.79
61324;BME280;47203;48.428;11.974;2023-11-21T07:24:11;96349.84;;;10.52;57.80
61324;BME280;47203;48.428;11.974;2023-11-21T07:26:16;96356.66;;;10.53;58.24
61324;BME280;47203;48.428;11.974;2023-11-21T07:28:22;96352.75;;;10.50;57.96
61324;BME280;47203;48.428;11.974;2023-11-21T07:30:34;96353.53;;;10.51;58.07
61324;BME280;47203;48.428;11.974;2023-11-21T07:32:39;96355.66;;;10.48;58.13
61324;BME280;47203;48.428;11.974;2023-11-21T07:34:45;96362.75;;;10.53;58.04
61324;BME280;47203;48.428;11.974;2023-11-21T07:36:50;96360.34;;;10.57;58.13
61324;BME280;47203;48.428;11.974;2023-11-21T07:38:55;96359.00;;;10.59;58.10
61324;BME280;47203;48.428;11.974;2023-11-21T07:41:00;96355.34;;;10.60;58.06
61324;BME280;47203;48.428;11.974;2023-11-21T07:43:11;96356.38;;;10.64;58.12
61324;BME280;47203;48.428;11.974;2023-11-21T07:45:18;96358.44;;;10.68;58.39
61324;BME280;47203;48.428;11.974;2023-11-21T07:47:24;96355.25;;;10.71;58.23
61324;BME280;47203;48.428;11.974;2023-11-21T07:49:29;96357.84;;;10.76;58.14
61324;BME280;47203;48.428;11.974;2023-11-21T07:51:32;96348.63;;;10.78;58.07
61324;BME280;47203;48.428;11.974;2023-11-21T07:53:37;96354.91;;;10.82;57.97
61324;BME280;47203;48.428;11.974;2023-11-21T07:55:42;96350.69;;;10.87;58.20
61324;BME280;47203;48.428;11.974;2023-11-21T07:57:51;96351.72;;;10.91;58.43
61324;BME280;47203;48.428;11.974;2023-11-21T07:59:57;96353.75;;;10.99;58.31
61324;BME280;47203;48.428;11.974;2023-11-21T08:01:59;96354.47;;;11.10;58.12
61324;BME280;47203;48.428;11.974;2023-11-21T08:04:04;96348.81;;;11.22;58.08
61324;BME280;47203;48.428;11.974;2023-11-21T08:06:10;96357.91;;;11.34;58.11
61324;BME280;47203;48.428;11.974;2023-11-21T08:08:15;96362.84;;;11.46;57.95
61324;BME280;47203;48.428;11.974;2023-11-21T08:10:20;96362.00;;;11.51;57.79
61324;BME280;47203;48.428;11.974;2023-11-21T08:12:26;96367.22;;;11.56;57.76
61324;BME280;47203;48.428;11.974;2023-11-21T08:14:34;96362.19;;;11.60;57.58
61324;BME280;47203;48.428;11.974;2023-11-21T08:16:42;96361.09;;;11.61;57.80
61324;BME280;47203;48.428;11.974;2023-11-21T08:18:47;96364.53;;;11.61;57.52
61324;BME280;47203;48.428;11.974;2023-11-21T08:20:50;96360.84;;;11.62;57.40
61324;BME280;47203;48.428;11.974;2023-11-21T08:22:57;96357.66;;;11.65;57.56
61324;BME280;47203;48.428;11.974;2023-11-21T08:25:03;96355.00;;;11.65;57.30
61324;BME280;47203;48.428;11.974;2023-11-21T08:27:09;96353.16;;;11.66;57.25
61324;BME280;47203;48.428;11.974;2023-11-21T08:29:17;96361.56;;;11.68;57.68
61324;BME280;47203;48.428;11.974;2023-11-21T08:31:28;96360.50;;;11.69;57.28
61324;BME280;47203;48.428;11.974;2023-11-21T08:33:33;96359.44;;;11.70;57.36
61324;BME280;47203;48.428;11.974;2023-11-21T08:35:38;96358.38;;;11.71;57.36
61324;BME280;47203;48.428;11.974;2023-11-21T08:37:43;96364.72;;;11.70;57.27
61324;BME280;47203;48.428;11.974;2023-11-21T08:39:49;96356.53;;;11.72;57.12
61324;BME280;47203;48.428;11.974;2023-11-21T08:41:54;96362.00;;;11.75;57.18
61324;BME280;47203;48.428;11.974;2023-11-21T08:43:59;96359.63;;;11.79;57.18
61324;BME280;47203;48.428;11.974;2023-11-21T08:46:02;96361.41;;;11.83;57.10
61324;BME280;47203;48.428;11.974;2023-11-21T08:48:10;96366.09;;;11.86;57.09
61324;BME280;47203;48.428;11.974;2023-11-21T08:50:16;96363.72;;;11.90;57.26
61324;BME280;47203;48.428;11.974;2023-11-21T08:52:21;96366.31;;;11.95;57.27
61324;BME280;47203;48.428;11.974;2023-11-21T08:54:26;96377.31;;;12.02;57.28
61324;BME280;47203;48.428;11.974;2023-11-21T08:56:31;96372.47;;;12.10;56.96
61324;BME280;47203;48.428;11.974;2023-11-21T08:58:36;96378.47;;;12.15;56.93
61324;BME280;47203;48.428;11.974;2023-11-21T09:00:41;96373.41;;;12.19;56.99
61324;BME280;47203;48.428;11.974;2023-11-21T09:02:48;96376.00;;;12.24;57.11
61324;BME280;47203;48.428;11.974;2023-11-21T09:04:56;96375.94;;;12.29;56.76
61324;BME280;47203;48.428;11.974;2023-11-21T09:07:01;96377.22;;;12.32;56.93
61324;BME280;47203;48.428;11.974;2023-11-21T09:09:07;96383.28;;;12.32;56.74
61324;BME280;47203;48.428;11.974;2023-11-21T09:11:12;96386.72;;;12.33;56.66
61324;BME280;47203;48.428;11.974;2023-11-21T09:13:17;96384.38;;;12.31;56.86
61324;BME280;47203;48.428;11.974;2023-11-21T09:15:24;96386.72;;;12.33;56.68
61324;BME280;47203;48.428;11.974;2023-11-21T09:17:29;96387.22;;;12.35;56.99
61324;BME280;47203;48.428;11.974;2023-11-21T09:19:34;96386.88;;;12.42;56.89
61324;BME280;47203;48.428;11.974;2023-11-21T09:21:42;96398.16;;;12.47;56.80
61324;BME280;47203;48.428;11.974;2023-11-21T09:23:48;96394.09;;;12.55;56.67
61324;BME280;47203;48.428;11.974;2023-11-21T09:25:53;96397.94;;;12.63;56.73
61324;BME280;47203;48.428;11.974;2023-11-21T09:27:59;96396.25;;;12.72;56.82
61324;BME280;47203;48.428;11.974;2023-11-21T09:30:07;96394.81;;;12.80;56.64
61324;BME280;47203;48.428;11.974;2023-11-21T09:32:16;96400.72;;;12.90;56.56
61324;BME280;47203;48.428;11.974;2023-11-21T09:34:21;96401.56;;;13.05;56.29
61324;BME280;47203;48.428;11.974;2023-11-21T09:36:27;96398.19;;;13.18;56.25
61324;BME280;47203;48.428;11.974;2023-11-21T09:38:35;96399.59;;;13.30;56.60
61324;BME280;47203;48.428;11.974;2023-11-21T09:40:41;96400.34;;;13.35;56.51
61324;BME280;47203;48.428;11.974;2023-11-21T09:42:50;96402.69;;;13.37;56.60
61324;BME280;47203;48.428;11.974;2023-11-21T09:45:03;96405.34;;;13.37;56.27
61324;BME280;47203;48.428;11.974;2023-11-21T09:47:12;96404.75;;;13.40;56.23
61324;BME280;47203;48.428;11.974;2023-11-21T09:49:21;96402.63;;;13.42;56.36
61324;BME280;47203;48.428;11.974;2023-11-21T09:51:30;96397.81;;;13.44;56.07
61324;BME280;47203;48.428;11.974;2023-11-21T09:53:44;96393.31;;;13.44;56.07
61324;BME280;47203;48.428;11.974;2023-11-21T09:55:52;96395.09;;;13.49;56.42
61324;BME280;47203;48.428;11.974;2023-11-21T09:57:58;96395.31;;;13.53;56.03
61324;BME280;47203;48.428;11.974;2023-11-21T10:00:04;96399.53;;;13.54;55.93
61324;BME280;47203;48.428;11.974;2023-11-21T10:02:14;96394.00;;;13.50;55.97
61324;BME280;47203;48.428;11.974;2023-11-21T10:04:22;96393.03;;;13.46;56.20
61324;BME280;47203;48.428;11.974;2023-11-21T10:06:30;96399.47;;;13.40;56.18
61324;BME280;47203;48.428;11.974;2023-11-21T10:08:37;96400.34;;;13.35;56.28
61324;BME280;47203;48.428;11.974;2023-11-21T10:10:56;96396.19;;;13.29;56.25
61324;BME280;47203;48.428;11.974;2023-11-21T10:13:03;96400.00;;;13.23;56.19
61324;BME280;47203;48.428;11.974;2023-11-21T10:15:11;96398.00;;;13.15;56.32
61324;BME280;47203;48.428;11.974;2023-11-21T10:17:19;96395.72;;;13.08;56.52
61324;BME280;47203;48.428;11.974;2023-11-21T10:19:25;96394.72;;;13.04;56.69
61324;BME280;47203;48.428;11.974;2023-11-21T10:21:31;96395.56;;;12.99;56.65
61324;BME280;47203;48.428;11.974;2023-11-21T10:23:36;96403.88;;;12.92;56.73
61324;BME280;47203;48.428;11.974;2023-11-21T10:25:41;96398.94;;;12.86;56.28
61324;BME280;47203;48.428;11.974;2023-11-21T10:27:47;96397.44;;;12.80;56.57
61324;BME280;47203;48.428;11.974;2023-11-21T10:29:53;96402.03;;;12.74;56.38
61324;BME280;47203;48.428;11.974;2023-11-21T10:32:00;96398.09;;;12.71;56.60
61324;BME280;47203;48.428;11.974;2023-11-21T10:34:15;96399.72;;;12.67;56.74
61324;BME280;47203;48.428;11.974;2023-11-21T10:36:29;96397.66;;;12.64;56.83
61324;BME280;47203;48.428;11.974;2023-11-21T10:38:42;96393.75;;;12.62;56.58
61324;BME280;47203;48.428;11.974;2023-11-21T10:40:52;96404.59;;;12.60;57.03
61324;BME280;47203;48.428;11.974;2023-11-21T10:43:06;96405.94;;;12.57;56.78
61324;BME280;47203;48.428;11.974;2023-11-21T10:45:11;96406.50;;;12.54;56.57
61324;BME280;47203;48.428;11.974;2023-11-21T10:47:17;96399.16;;;12.51;56.87
61324;BME280;47203;48.428;11.974;2023-11-21T10:49:21;96414.47;;;12.49;56.93
61324;BME280;47203;48.428;11.974;2023-11-21T10:51:26;96413.47;;;12.45;56.96
61324;BME280;47203;48.428;11.974;2023-11-21T10:53:29;96415.63;;;12.43;56.74
61324;BME280;47203;48.428;11.974;2023-11-21T10:55:34;96414.84;;;12.43;56.62
61324;BME280;47203;48.428;11.974;2023-11-21T10:57:37;96416.69;;;12.42;56.83